createdAt,value
2018-06-03T00:00:11.929Z,12.37
2018-06-03T00:02:40.555Z,11.80
2018-06-03T00:05:09.243Z,13.70
2018-06-03T00:07:37.922Z,12.83
2018-06-03T00:10:06.619Z,11.60
2018-06-03T00:12:35.282Z,12.03
2018-06-03T00:15:04.006Z,14.57
2018-06-03T00:17:32.679Z,12.53
2018-06-03T00:20:01.309Z,12.63
2018-06-03T00:22:32.093Z,12.10
2018-06-03T00:25:00.795Z,13.77
2018-06-03T00:27:29.116Z,11.90
2018-06-03T00:29:57.797Z,12.47
2018-06-03T00:32:26.446Z,12.60
2018-06-03T00:34:55.126Z,13.57
2018-06-03T00:37:23.762Z,13.23
2018-06-03T00:39:52.407Z,14.37
2018-06-03T00:42:21.090Z,12.73
2018-06-03T00:44:49.731Z,11.93
2018-06-03T00:47:18.423Z,12.17
2018-06-03T00:49:47.086Z,11.87
2018-06-03T00:52:15.755Z,11.87
2018-06-03T00:54:44.437Z,11.63
2018-06-03T00:57:13.081Z,19.20
2018-06-03T00:59:41.771Z,11.40
2018-06-03T01:02:10.435Z,10.73
2018-06-03T01:04:39.073Z,11.17
2018-06-03T01:07:07.777Z,10.30
2018-06-03T01:09:36.458Z,11.43
2018-06-03T01:12:05.182Z,10.60
2018-06-03T01:14:33.816Z,11.37
2018-06-03T01:17:02.467Z,12.77
2018-06-03T01:19:31.157Z,12.57
2018-06-03T01:21:59.448Z,15.50
2018-06-03T01:24:28.137Z,12.40
2018-06-03T01:26:56.809Z,11.50
2018-06-03T01:29:25.485Z,13.37
2018-06-03T01:31:54.207Z,14.13
2018-06-03T01:34:22.870Z,12.93
2018-06-03T01:36:51.584Z,11.60
2018-06-03T01:42:13.774Z,12.27
2018-06-03T01:44:42.434Z,12.07
2018-06-03T01:47:11.076Z,12.13
2018-06-03T01:49:39.371Z,14.73
2018-06-03T01:52:08.006Z,12.67
2018-06-03T01:54:36.673Z,14.80
2018-06-03T01:57:05.600Z,12.33
2018-06-03T01:59:34.244Z,12.33
2018-06-03T02:02:02.921Z,12.20
2018-06-03T02:04:31.579Z,11.97
2018-06-03T02:07:00.249Z,13.17
2018-06-03T02:09:28.872Z,14.70
2018-06-03T02:11:57.524Z,12.90
2018-06-03T02:14:26.209Z,12.70
2018-06-03T02:16:54.522Z,12.60
2018-06-03T02:19:23.153Z,14.30
2018-06-03T02:21:51.833Z,12.90
2018-06-03T02:24:20.478Z,12.43
2018-06-03T02:26:49.140Z,13.13
2018-06-03T02:29:17.778Z,12.57
2018-06-03T02:31:46.519Z,13.47
2018-06-03T02:34:15.157Z,13.13
2018-06-03T02:36:43.782Z,12.60
2018-06-03T02:39:12.803Z,11.87
2018-06-03T02:41:41.453Z,14.20
2018-06-03T02:44:10.124Z,11.40
2018-06-03T02:46:38.822Z,12.00
2018-06-03T02:49:07.492Z,11.70
2018-06-03T02:51:36.146Z,12.13
2018-06-03T02:54:04.809Z,13.30
2018-06-03T02:56:33.475Z,12.33
2018-06-03T02:59:02.134Z,12.67
2018-06-03T03:01:30.817Z,10.67
2018-06-03T03:03:59.450Z,11.90
2018-06-03T03:06:28.097Z,12.17
2018-06-03T03:08:56.736Z,13.10
2018-06-03T03:11:25.401Z,12.50
2018-06-03T03:13:54.049Z,12.40
2018-06-03T03:16:22.755Z,13.20
2018-06-03T03:18:51.385Z,12.87
2018-06-03T03:21:20.037Z,12.43
2018-06-03T03:23:48.695Z,11.23
2018-06-03T03:26:17.345Z,11.97
2018-06-03T03:28:46.006Z,11.20
2018-06-03T03:31:14.641Z,11.70
2018-06-03T03:33:43.301Z,11.17
2018-06-03T03:36:11.944Z,11.13
2018-06-03T03:38:40.571Z,10.80
2018-06-03T03:41:09.235Z,10.40
2018-06-03T03:43:51.309Z,11.93
2018-06-03T03:46:19.979Z,11.90
2018-06-03T03:48:48.614Z,13.87
2018-06-03T03:51:31.714Z,11.77
2018-06-03T03:54:00.363Z,11.40
2018-06-03T03:56:28.995Z,11.27
2018-06-03T03:58:57.664Z,12.20
2018-06-03T04:01:26.305Z,11.50
2018-06-03T04:09:46.293Z,12.27
2018-06-03T04:12:14.949Z,11.40
2018-06-03T04:14:43.590Z,11.40
2018-06-03T04:17:12.269Z,11.30
2018-06-03T04:19:40.923Z,10.73
2018-06-03T04:22:09.622Z,12.20
2018-06-03T04:24:38.275Z,12.10
2018-06-03T04:27:06.978Z,11.33
2018-06-03T04:29:35.604Z,11.50
2018-06-03T04:32:04.260Z,11.27
2018-06-03T04:34:32.936Z,10.83
2018-06-03T04:37:01.598Z,10.77
2018-06-03T04:39:30.272Z,11.07
2018-06-03T04:41:58.914Z,13.43
2018-06-03T04:44:27.586Z,10.90
2018-06-03T04:46:56.251Z,11.60
2018-06-03T04:49:24.932Z,10.70
2018-06-03T04:51:53.598Z,10.67
2018-06-03T04:54:22.260Z,11.00
2018-06-03T04:56:50.941Z,10.20
2018-06-03T04:59:19.576Z,13.13
2018-06-03T05:01:48.234Z,12.73
2018-06-03T05:04:16.877Z,11.07
2018-06-03T05:06:45.528Z,10.60
2018-06-03T05:09:14.219Z,11.20
2018-06-03T05:11:42.909Z,10.33
2018-06-03T05:14:11.576Z,11.73
2018-06-03T05:16:40.224Z,12.13
2018-06-03T05:19:08.897Z,11.40
2018-06-03T05:21:37.576Z,12.07
2018-06-03T05:24:06.241Z,11.57
2018-06-03T05:26:35.074Z,13.07
2018-06-03T05:29:03.837Z,12.50
2018-06-03T05:31:32.580Z,12.57
2018-06-03T05:34:01.284Z,11.87
2018-06-03T05:36:30.045Z,11.63
2018-06-03T05:38:58.758Z,11.33
2018-06-03T05:41:27.406Z,9.47
2018-06-03T05:43:56.046Z,9.60
2018-06-03T05:46:24.937Z,9.43
2018-06-03T05:48:53.585Z,10.07
2018-06-03T05:51:22.225Z,9.87
2018-06-03T05:53:54.343Z,9.60
2018-06-03T05:56:23.024Z,9.20
2018-06-03T05:58:51.701Z,8.90
2018-06-03T06:01:20.320Z,9.50
2018-06-03T06:03:48.968Z,9.37
2018-06-03T06:06:17.681Z,9.90
2018-06-03T06:08:46.362Z,10.70
2018-06-03T06:11:15.059Z,9.67
2018-06-03T06:13:43.700Z,9.13
2018-06-03T06:16:12.394Z,9.03
2018-06-03T06:18:41.062Z,9.90
2018-06-03T06:21:09.741Z,8.80
2018-06-03T06:23:38.493Z,9.00
2018-06-03T06:26:07.153Z,10.73
2018-06-03T06:28:35.772Z,9.13
2018-06-03T06:31:04.455Z,9.97
2018-06-03T06:33:33.114Z,10.40
2018-06-03T06:36:01.804Z,9.47
2018-06-03T06:38:30.470Z,12.50
2018-06-03T06:40:59.131Z,10.23
2018-06-03T06:43:27.790Z,9.63
2018-06-03T06:46:18.691Z,10.03
2018-06-03T06:48:47.362Z,10.90
2018-06-03T06:51:16.017Z,9.73
2018-06-03T06:53:45.516Z,10.90
2018-06-03T06:56:14.218Z,10.83
2018-06-03T06:58:42.941Z,10.03
2018-06-03T07:01:11.631Z,10.27
2018-06-03T07:03:40.315Z,10.93
2018-06-03T07:06:08.977Z,8.93
2018-06-03T07:08:37.736Z,9.47
2018-06-03T07:11:06.011Z,10.17
2018-06-03T07:13:34.677Z,10.40
2018-06-03T07:16:03.373Z,9.57
2018-06-03T07:18:32.040Z,11.23
2018-06-03T07:21:00.691Z,10.80
2018-06-03T07:23:29.331Z,11.40
2018-06-03T07:25:58.395Z,10.83
2018-06-03T07:28:27.053Z,9.07
2018-06-03T07:30:55.843Z,12.97
2018-06-03T07:33:24.518Z,10.03
2018-06-03T07:35:53.200Z,9.23
2018-06-03T07:38:22.057Z,10.47
2018-06-03T07:40:50.690Z,9.73
2018-06-03T07:43:19.343Z,10.43
2018-06-03T07:45:48.162Z,9.80
2018-06-03T07:48:17.299Z,9.63
2018-06-03T07:50:46.889Z,8.50
2018-06-03T07:53:15.758Z,8.97
2018-06-03T07:55:44.405Z,9.40
2018-06-03T07:58:13.146Z,10.87
2018-06-03T08:00:42.209Z,10.87
2018-06-03T08:03:10.921Z,10.50
2018-06-03T08:05:39.633Z,10.53
2018-06-03T08:08:08.296Z,9.53
2018-06-03T08:10:37.015Z,8.13
2018-06-03T08:13:05.714Z,8.57
2018-06-03T08:15:34.361Z,8.60
2018-06-03T08:18:03.020Z,9.57
2018-06-03T08:20:31.725Z,9.40
2018-06-03T08:23:00.345Z,8.80
2018-06-03T08:25:29.048Z,8.70
2018-06-03T08:27:57.689Z,8.00
2018-06-03T08:30:26.364Z,10.13
2018-06-03T08:32:54.999Z,8.63
2018-06-03T08:35:23.683Z,9.23
2018-06-03T08:37:52.329Z,9.77
2018-06-03T08:40:20.986Z,9.67
2018-06-03T08:42:49.629Z,10.83
2018-06-03T08:45:18.292Z,11.60
2018-06-03T08:47:46.950Z,8.90
2018-06-03T08:50:15.594Z,9.70
2018-06-03T08:52:44.267Z,8.60
2018-06-03T08:55:12.931Z,8.60
2018-06-03T08:57:41.613Z,8.00
2018-06-03T09:00:10.275Z,7.27
2018-06-03T09:02:38.928Z,7.53
2018-06-03T09:05:07.618Z,8.03
2018-06-03T09:07:36.274Z,8.77
2018-06-03T09:10:05.765Z,7.60
2018-06-03T09:12:34.451Z,7.70
2018-06-03T09:15:03.081Z,8.20
2018-06-03T09:17:31.737Z,7.60
2018-06-03T09:20:00.405Z,6.77
2018-06-03T09:22:29.095Z,7.23
2018-06-03T09:24:57.769Z,6.57
2018-06-03T09:30:19.041Z,7.37
2018-06-03T09:32:48.879Z,7.47
2018-06-03T09:35:17.556Z,7.43
2018-06-03T09:37:46.213Z,7.33
2018-06-03T09:40:14.854Z,7.80
2018-06-03T09:42:43.551Z,7.50
2018-06-03T09:45:12.194Z,7.87
2018-06-03T09:47:40.821Z,7.17
2018-06-03T09:50:09.576Z,6.10
2018-06-03T09:52:38.215Z,5.50
2018-06-03T09:55:06.934Z,5.93
2018-06-03T09:57:35.618Z,7.07
2018-06-03T10:00:04.551Z,6.67
2018-06-03T10:02:33.197Z,6.40
2018-06-03T10:05:01.855Z,5.70
2018-06-03T10:07:30.543Z,6.70
2018-06-03T10:09:59.215Z,6.40
2018-06-03T10:12:27.898Z,6.80
2018-06-03T10:14:56.571Z,6.03
2018-06-03T10:17:25.323Z,6.40
2018-06-03T10:19:53.985Z,5.60
2018-06-03T10:22:22.644Z,6.10
2018-06-03T10:24:51.001Z,6.13
2018-06-03T10:27:19.703Z,5.90
2018-06-03T10:32:41.091Z,5.63
2018-06-03T10:35:09.817Z,6.17
2018-06-03T10:37:38.432Z,6.73
2018-06-03T10:40:06.718Z,5.87
2018-06-03T10:42:35.402Z,6.10
2018-06-03T10:45:04.178Z,5.93
2018-06-03T10:47:32.885Z,7.53
2018-06-03T10:50:01.556Z,5.60
2018-06-03T10:52:29.849Z,5.77
2018-06-03T10:54:58.737Z,5.90
2018-06-03T10:57:37.429Z,6.37
2018-06-03T11:00:06.417Z,6.03
2018-06-03T11:05:29.446Z,5.73
2018-06-03T11:07:58.208Z,5.63
2018-06-03T11:10:27.043Z,5.50
2018-06-03T11:12:55.795Z,6.33
2018-06-03T11:15:29.305Z,5.77
2018-06-03T11:18:08.380Z,5.80
2018-06-03T11:20:37.438Z,5.97
2018-06-03T11:23:06.161Z,5.47
2018-06-03T11:25:42.419Z,5.83
2018-06-03T11:28:11.062Z,5.40
2018-06-03T11:30:39.841Z,5.40
2018-06-03T11:33:08.518Z,6.00
2018-06-03T11:35:37.231Z,5.90
2018-06-03T11:38:05.925Z,4.87
2018-06-03T11:40:34.629Z,6.40
2018-06-03T11:43:03.273Z,5.40
2018-06-03T11:45:31.993Z,4.97
2018-06-03T11:48:00.650Z,4.90
2018-06-03T11:50:30.372Z,5.77
2018-06-03T11:53:02.847Z,6.10
2018-06-03T11:55:31.516Z,5.33
2018-06-03T11:58:41.761Z,5.40
2018-06-03T12:01:10.624Z,5.50
2018-06-03T12:03:39.312Z,6.00
2018-06-03T12:06:08.133Z,6.23
2018-06-03T12:08:36.893Z,4.83
2018-06-03T12:11:05.596Z,6.10
2018-06-03T12:13:33.920Z,5.80
2018-06-03T12:16:02.583Z,5.53
2018-06-03T12:18:31.289Z,4.93
2018-06-03T12:21:00.014Z,5.10
2018-06-03T12:23:28.710Z,5.57
2018-06-03T12:26:03.517Z,5.43
2018-06-03T12:28:46.576Z,4.80
2018-06-03T12:31:15.367Z,5.43
2018-06-03T12:33:49.699Z,5.27
2018-06-03T12:36:18.427Z,4.93
2018-06-03T12:38:48.373Z,5.07
2018-06-03T12:41:17.122Z,5.77
2018-06-03T12:43:45.809Z,5.10
2018-06-03T12:46:33.838Z,5.00
2018-06-03T12:49:18.406Z,5.30
2018-06-03T12:51:47.074Z,6.33
2018-06-03T12:54:15.756Z,6.40
2018-06-03T12:59:53.018Z,5.10
2018-06-03T13:02:21.695Z,4.30
2018-06-03T13:04:50.374Z,4.70
2018-06-03T13:07:19.049Z,4.50
2018-06-03T13:09:47.727Z,5.00
2018-06-03T13:12:16.384Z,4.30
2018-06-03T13:14:46.213Z,4.83
2018-06-03T13:17:14.897Z,4.53
2018-06-03T13:20:01.582Z,4.63
2018-06-03T13:22:30.249Z,4.43
2018-06-03T13:24:58.934Z,4.30
2018-06-03T13:27:27.622Z,5.07
2018-06-03T13:29:56.284Z,5.00
2018-06-03T13:32:24.976Z,4.70
2018-06-03T13:34:53.701Z,5.27
2018-06-03T13:37:22.351Z,4.90
2018-06-03T13:39:51.161Z,5.07
2018-06-03T13:42:19.820Z,5.40
2018-06-03T13:44:48.547Z,4.80
2018-06-03T13:47:17.223Z,4.90
2018-06-03T13:49:45.861Z,4.17
2018-06-03T13:52:14.657Z,4.50
2018-06-03T13:54:47.607Z,5.20
2018-06-03T13:57:16.318Z,4.60
2018-06-03T13:59:45.027Z,4.50
2018-06-03T14:02:13.713Z,4.57
2018-06-03T14:04:43.488Z,4.10
2018-06-03T14:07:13.226Z,4.83
2018-06-03T14:09:41.623Z,4.30
2018-06-03T14:12:09.948Z,4.70
2018-06-03T14:14:38.620Z,4.30
2018-06-03T14:17:07.381Z,4.60
2018-06-03T14:19:36.108Z,4.07
2018-06-03T14:22:12.245Z,4.60
2018-06-03T14:24:40.962Z,4.07
2018-06-03T14:27:09.645Z,4.50
2018-06-03T14:29:39.317Z,4.73
2018-06-03T14:32:11.991Z,4.00
2018-06-03T14:34:40.669Z,4.50
2018-06-03T14:37:09.310Z,4.40
2018-06-03T14:39:38.069Z,4.30
2018-06-03T14:42:06.780Z,4.67
2018-06-03T14:44:35.435Z,4.37
2018-06-03T14:47:04.084Z,4.30
2018-06-03T14:49:50.180Z,4.57
2018-06-03T14:55:21.980Z,4.00
2018-06-03T14:57:50.697Z,4.53
2018-06-03T15:00:19.332Z,4.57
2018-06-03T15:02:48.022Z,4.53
2018-06-03T15:05:16.704Z,4.07
2018-06-03T15:07:45.394Z,4.43
2018-06-03T15:10:14.082Z,4.63
2018-06-03T15:12:42.748Z,4.47
2018-06-03T15:15:15.070Z,5.17
2018-06-03T15:17:43.373Z,5.53
2018-06-03T15:20:12.109Z,4.53
2018-06-03T15:22:40.794Z,4.90
2018-06-03T15:25:09.460Z,4.23
2018-06-03T15:27:44.919Z,3.77
2018-06-03T15:30:14.545Z,3.97
2018-06-03T15:32:43.192Z,4.20
2018-06-03T15:35:11.965Z,3.83
2018-06-03T15:37:46.711Z,3.93
2018-06-03T15:40:25.520Z,4.10
2018-06-03T15:42:54.233Z,4.20
2018-06-03T15:45:29.077Z,4.03
2018-06-03T15:47:59.242Z,3.90
2018-06-03T15:50:27.942Z,4.70
2018-06-03T15:53:03.738Z,4.10
2018-06-03T15:55:37.319Z,3.67
2018-06-03T16:01:00.434Z,4.00
2018-06-03T16:09:25.701Z,3.83
2018-06-03T16:17:48.020Z,3.90
2018-06-03T16:20:23.531Z,4.27
2018-06-03T16:25:45.509Z,4.37
2018-06-03T16:28:16.531Z,11.77
2018-06-03T16:30:45.299Z,7.40
2018-06-03T16:33:13.945Z,24.93
2018-06-03T16:35:42.625Z,4.03
2018-06-03T16:38:11.257Z,4.50
2018-06-03T16:40:39.992Z,11.57
2018-06-03T16:43:08.651Z,9.03
2018-06-03T16:45:37.307Z,4.83
2018-06-03T16:48:06.108Z,5.10
2018-06-03T16:50:38.217Z,3.90
2018-06-03T16:53:06.877Z,4.50
2018-06-03T16:55:35.519Z,4.53
2018-06-03T16:58:04.194Z,4.60
2018-06-03T17:00:32.867Z,4.00
2018-06-03T17:03:01.538Z,4.13
2018-06-03T17:05:48.735Z,4.23
2018-06-03T17:08:17.357Z,4.10
2018-06-03T17:10:46.011Z,4.40
2018-06-03T17:13:14.666Z,4.77
2018-06-03T17:15:43.285Z,4.53
2018-06-03T17:18:28.171Z,4.83
2018-06-03T17:20:56.895Z,4.80
2018-06-03T17:23:25.534Z,4.40
2018-06-03T17:25:54.205Z,4.10
2018-06-03T17:28:22.814Z,4.40
2018-06-03T17:30:51.663Z,4.53
2018-06-03T17:33:30.992Z,5.43
2018-06-03T17:36:07.879Z,4.80
2018-06-03T17:38:36.503Z,5.20
2018-06-03T17:41:05.452Z,5.90
2018-06-03T17:43:34.113Z,4.47
2018-06-03T17:46:02.784Z,4.30
2018-06-03T17:48:31.475Z,4.53
2018-06-03T17:51:00.385Z,5.10
2018-06-03T17:53:29.037Z,4.50
2018-06-03T17:55:58.729Z,4.83
2018-06-03T17:58:27.360Z,4.70
2018-06-03T18:00:56.044Z,4.70
2018-06-03T18:03:24.780Z,5.30
2018-06-03T18:05:53.477Z,4.47
2018-06-03T18:08:22.189Z,5.17
2018-06-03T18:10:50.888Z,4.43
2018-06-03T18:13:26.624Z,4.37
2018-06-03T18:15:55.341Z,4.30
2018-06-03T18:18:29.797Z,4.40
2018-06-03T18:23:56.437Z,5.03
2018-06-03T18:26:25.107Z,4.67
2018-06-03T18:28:53.829Z,4.80
2018-06-03T18:31:30.181Z,5.50
2018-06-03T18:34:04.909Z,4.70
2018-06-03T18:36:45.487Z,5.10
2018-06-03T18:39:19.940Z,4.37
2018-06-03T18:41:48.624Z,4.87
2018-06-03T18:44:17.293Z,5.90
2018-06-03T18:46:46.046Z,5.67
2018-06-03T18:49:14.690Z,4.63
2018-06-03T18:51:47.169Z,4.53
2018-06-03T18:54:17.664Z,4.73
2018-06-03T18:56:46.424Z,4.20
2018-06-03T18:59:15.193Z,3.80
2018-06-03T19:04:36.551Z,4.10
2018-06-03T19:07:06.313Z,4.10
2018-06-03T19:09:34.957Z,4.30
2018-06-03T19:12:03.737Z,4.37
2018-06-03T19:14:32.411Z,6.97
2018-06-03T19:17:10.540Z,4.90
2018-06-03T19:19:39.222Z,4.33
2018-06-03T19:22:07.536Z,4.10
2018-06-03T19:24:42.455Z,9.20
2018-06-03T19:27:11.123Z,4.40
2018-06-03T19:29:39.797Z,5.10
2018-06-03T19:32:08.454Z,7.30
2018-06-03T19:34:37.097Z,5.03
2018-06-03T19:37:05.808Z,5.77
2018-06-03T19:39:34.478Z,4.60
2018-06-03T19:42:03.154Z,4.80
2018-06-03T19:44:31.965Z,5.60
2018-06-03T19:47:00.631Z,4.53
2018-06-03T19:49:29.313Z,6.33
2018-06-03T19:51:58.004Z,5.57
2018-06-03T19:54:26.660Z,4.50
2018-06-03T19:56:55.333Z,5.30
2018-06-03T19:59:23.984Z,4.77
2018-06-03T20:01:59.105Z,5.03
2018-06-03T20:04:27.769Z,5.00
2018-06-03T20:06:57.261Z,5.07
2018-06-03T20:09:25.928Z,4.80
2018-06-03T20:11:54.611Z,4.83
2018-06-03T20:14:32.477Z,5.10
2018-06-03T20:17:01.099Z,5.33
2018-06-03T20:19:29.760Z,4.40
2018-06-03T20:22:17.710Z,5.00
2018-06-03T20:24:46.336Z,5.33
2018-06-03T20:27:15.017Z,5.30
2018-06-03T20:29:43.644Z,6.17
2018-06-03T20:32:12.312Z,6.23
2018-06-03T20:34:40.970Z,5.40
2018-06-03T20:37:09.624Z,8.33
2018-06-03T20:39:38.300Z,5.40
2018-06-03T20:42:06.965Z,5.17
2018-06-03T20:44:35.635Z,4.63
2018-06-03T20:47:04.302Z,6.53
2018-06-03T20:49:33.028Z,6.30
2018-06-03T20:52:01.716Z,5.27
2018-06-03T20:54:30.380Z,5.33
2018-06-03T20:56:59.020Z,5.57
2018-06-03T20:59:27.319Z,6.73
2018-06-03T21:01:55.941Z,5.67
2018-06-03T21:04:24.624Z,6.53
2018-06-03T21:06:53.240Z,5.40
2018-06-03T21:09:21.873Z,6.27
2018-06-03T21:14:44.682Z,5.47
2018-06-03T21:17:13.334Z,5.27
2018-06-03T21:19:41.963Z,5.00
2018-06-03T21:22:10.615Z,5.77
2018-06-03T21:24:39.270Z,5.63
2018-06-03T21:27:07.918Z,6.30
2018-06-03T21:29:58.797Z,5.87
2018-06-03T21:32:27.442Z,7.13
2018-06-03T21:34:56.126Z,8.13
2018-06-03T21:37:24.770Z,6.50
2018-06-03T21:39:53.455Z,6.10
2018-06-03T21:42:22.112Z,8.23
2018-06-03T21:44:50.788Z,6.27
2018-06-03T21:47:32.438Z,6.83
2018-06-03T21:50:01.098Z,6.63
2018-06-03T21:52:29.722Z,6.53
2018-06-03T21:54:58.401Z,10.30
2018-06-03T21:57:27.021Z,7.00
2018-06-03T21:59:55.712Z,6.87
2018-06-03T22:02:24.427Z,6.20
2018-06-03T22:04:53.050Z,7.27
2018-06-03T22:07:21.720Z,7.27
2018-06-03T22:09:50.405Z,6.90
2018-06-03T22:12:19.043Z,6.80
2018-06-03T22:14:47.709Z,6.97
2018-06-03T22:17:34.301Z,7.57
2018-06-03T22:25:55.733Z,10.10
2018-06-03T22:28:24.408Z,7.50
2018-06-03T22:30:53.031Z,9.70
2018-06-03T22:33:21.698Z,7.50
2018-06-03T22:35:50.388Z,8.30
2018-06-03T22:38:19.052Z,7.37
2018-06-03T22:40:47.652Z,8.37
2018-06-03T22:43:16.330Z,7.80
2018-06-03T22:45:44.978Z,6.80
2018-06-03T22:48:13.623Z,7.90
2018-06-03T22:50:42.289Z,8.20
2018-06-03T22:53:10.972Z,7.70
2018-06-03T22:58:35.966Z,7.83
2018-06-03T23:01:04.649Z,7.87
2018-06-03T23:03:33.295Z,8.20
2018-06-03T23:06:07.932Z,7.00
2018-06-03T23:08:36.584Z,7.53
2018-06-03T23:11:05.214Z,7.90
2018-06-03T23:13:33.886Z,9.57
2018-06-03T23:16:02.552Z,7.70
2018-06-03T23:18:31.216Z,7.60
2018-06-03T23:20:59.874Z,9.40
2018-06-03T23:23:28.512Z,7.20
2018-06-03T23:26:09.886Z,8.30
2018-06-03T23:28:38.580Z,8.50
2018-06-03T23:31:07.250Z,9.67
2018-06-03T23:33:35.919Z,8.60
2018-06-03T23:36:04.545Z,8.73
2018-06-03T23:38:33.264Z,8.10
2018-06-03T23:41:01.906Z,8.77
2018-06-03T23:43:30.557Z,8.07
2018-06-03T23:45:59.250Z,8.80
2018-06-03T23:48:34.374Z,8.40
2018-06-03T23:51:03.058Z,8.00
2018-06-03T23:53:31.768Z,9.77
2018-06-03T23:56:00.417Z,9.10
2018-06-03T23:58:29.065Z,7.97
